Time;durP1;ratioP1;P1;durP2;ratioP2;P2;SDS_P1;SDS_P2;PMS_P1;PMS_P2;Temp;Humidity;BMP_temperature;BMP_pressure;BME280_temperature;BME280_humidity;BME280_pressure;Samples;Min_cycle;Max_cycle;Signal;HPM_P1;HPM_P2
2023/01/01 00:01:31;;;;;;;12.50;3.72;;;;;;;15.28;57.47;100745.53;4970687;28;20028;-88
2023/01/01 00:03:59;;;;;;;14.15;3.90;;;;;;;15.30;56.99;100740.91;4985950;28;20021;-88
2023/01/01 00:06:26;;;;;;;13.95;3.83;;;;;;;15.31;56.81;100732.81;4971077;28;20447;-88
2023/01/01 00:11:35;;;;;;;18.27;6.38;;;;;;;15.28;56.73;100733.09;4974735;28;20082;-88
2023/01/01 00:14:00;;;;;;;13.65;3.72;;;;;;;15.25;57.07;100751.97;4972343;28;20027;-88
2023/01/01 00:16:27;;;;;;;11.27;2.88;;;;;;;15.27;56.61;100762.41;4972798;28;20034;-87
2023/01/01 00:18:52;;;;;;;12.65;3.50;;;;;;;15.29;56.04;100747.19;4979967;28;20543;-88
2023/01/01 00:21:21;;;;;;;16.02;3.65;;;;;;;15.27;56.70;100759.75;4973350;28;20098;-88
2023/01/01 00:23:46;;;;;;;15.95;3.50;;;;;;;15.23;56.22;100750.44;4974158;28;20118;-88
2023/01/01 00:26:14;;;;;;;18.25;3.70;;;;;;;15.31;55.05;100764.63;4974905;28;20454;-87
2023/01/01 00:28:39;;;;;;;13.73;4.25;;;;;;;15.30;55.10;100767.44;4976902;28;20439;-89
2023/01/01 00:31:10;;;;;;;10.30;3.00;;;;;;;15.30;55.49;100748.88;4975262;28;20038;-88
2023/01/01 00:33:36;;;;;;;13.88;3.60;;;;;;;15.26;55.81;100752.78;4974607;28;20096;-88
2023/01/01 00:36:12;;;;;;;12.50;3.60;;;;;;;15.28;55.87;100743.72;4978158;28;20106;-87
2023/01/01 00:38:38;;;;;;;13.52;3.53;;;;;;;15.26;56.29;100750.16;4974711;28;20118;-88
2023/01/01 00:41:04;;;;;;;10.95;3.85;;;;;;;15.23;56.96;100745.13;4974226;28;20038;-87
2023/01/01 00:43:30;;;;;;;13.07;3.95;;;;;;;15.20;56.82;100750.69;4986904;28;20027;-88
2023/01/01 00:45:55;;;;;;;10.77;3.45;;;;;;;15.21;56.37;100739.97;4974851;28;20031;-88
2023/01/01 00:48:21;;;;;;;16.40;4.00;;;;;;;15.21;56.55;100747.94;4974761;28;20129;-88
2023/01/01 00:50:47;;;;;;;18.13;3.63;;;;;;;15.18;56.77;100742.91;4969313;28;20041;-87
2023/01/01 00:53:13;;;;;;;17.80;4.05;;;;;;;15.16;57.11;100738.72;4974931;28;20054;-88
2023/01/01 00:55:39;;;;;;;13.18;3.60;;;;;;;15.15;56.48;100732.59;4975023;28;20544;-87
2023/01/01 00:58:05;;;;;;;11.90;3.00;;;;;;;15.15;56.45;100750.31;4973891;28;20085;-86
2023/01/01 01:00:30;;;;;;;17.30;4.20;;;;;;;15.20;56.20;100761.31;4971519;28;20034;-86
2023/01/01 01:02:55;;;;;;;12.30;3.30;;;;;;;15.19;55.74;100760.47;4972406;28;20033;-87
2023/01/01 01:05:21;;;;;;;11.25;3.38;;;;;;;15.20;55.88;100772.75;4973295;28;20065;-87
2023/01/01 01:07:47;;;;;;;10.38;3.10;;;;;;;15.21;55.77;100768.28;4978148;28;20081;-87
2023/01/01 01:10:12;;;;;;;13.10;3.40;;;;;;;15.19;56.00;100775.53;4974458;28;20027;-87
2023/01/01 01:12:38;;;;;;;10.35;2.85;;;;;;;15.14;56.37;100757.41;4974790;28;20034;-86
2023/01/01 01:15:05;;;;;;;11.57;3.20;;;;;;;15.13;56.74;100765.53;4980019;28;20399;-87
2023/01/01 01:17:31;;;;;;;13.57;3.42;;;;;;;15.11;56.66;100747.13;4977401;28;20030;-87
2023/01/01 01:19:56;;;;;;;14.25;2.63;;;;;;;15.07;57.15;100760.81;4979542;28;20161;-88
2023/01/01 01:22:22;;;;;;;18.52;3.05;;;;;;;15.03;57.27;100745.19;4988235;28;20023;-86
2023/01/01 01:24:47;;;;;;;9.57;3.15;;;;;;;15.01;57.97;100757.75;4983964;28;20029;-87
2023/01/01 01:27:12;;;;;;;13.90;3.20;;;;;;;15.02;57.29;100767.38;4978692;28;20050;-87
2023/01/01 01:29:38;;;;;;;8.98;2.70;;;;;;;14.97;57.49;100774.91;4977642;28;20026;-87
2023/01/01 01:32:04;;;;;;;11.95;3.10;;;;;;;14.95;57.29;100784.81;4982023;28;20623;-87
2023/01/01 01:34:29;;;;;;;10.93;3.15;;;;;;;14.91;57.13;100780.78;4980330;28;20027;-87
2023/01/01 01:36:55;;;;;;;13.00;3.00;;;;;;;14.88;57.02;100781.09;4974814;28;20053;-86
2023/01/01 01:39:20;;;;;;;13.05;3.22;;;;;;;14.86;57.02;100790.16;4976043;28;20059;-85
2023/01/01 01:41:45;;;;;;;13.65;3.10;;;;;;;14.83;57.01;100785.13;4976486;28;20113;-88
2023/01/01 01:44:54;;;;;;;13.05;3.63;;;;;;;14.82;57.60;100772.88;4973393;28;20106;-86
2023/01/01 01:47:43;;;;;;;9.88;2.78;;;;;;;14.76;57.19;100790.16;4980964;28;20027;-87
2023/01/01 01:50:36;;;;;;;14.07;2.72;;;;;;;14.76;57.83;100786.66;4989663;28;20085;-87
2023/01/01 01:53:11;;;;;;;9.73;2.90;;;;;;;14.70;57.52;100796.00;4972736;28;20113;-87
2023/01/01 01:55:39;;;;;;;13.52;3.58;;;;;;;14.68;57.11;100803.25;4973690;28;20497;-86
2023/01/01 01:58:08;;;;;;;10.65;3.10;;;;;;;14.65;57.25;100812.34;4972713;28;20027;-86
2023/01/01 02:00:33;;;;;;;15.55;2.88;;;;;;;14.63;57.61;100816.09;4954181;28;20492;-88
2023/01/01 02:03:05;;;;;;;13.68;2.70;;;;;;;14.59;57.70;100820.00;4964199;28;20027;-87
2023/01/01 02:05:32;;;;;;;10.52;2.63;;;;;;;14.55;57.72;100813.31;4972164;28;20399;-86
2023/01/01 02:07:59;;;;;;;9.77;2.50;;;;;;;14.56;57.33;100837.00;4971376;28;20022;-87
2023/01/01 02:10:27;;;;;;;14.57;3.05;;;;;;;14.53;57.69;100832.00;4970836;28;20043;-86
2023/01/01 02:12:52;;;;;;;12.10;2.65;;;;;;;14.53;57.78;100820.56;4973414;28;20077;-86
2023/01/01 02:15:27;;;;;;;12.80;2.65;;;;;;;14.49;58.32;100819.19;4972905;28;20058;-87
2023/01/01 02:18:04;;;;;;;9.70;2.92;;;;;;;14.54;57.37;100827.53;4973778;28;20031;-88
2023/01/01 02:21:05;;;;;;;12.75;2.85;;;;;;;14.55;57.64;100835.34;4970574;28;20031;-86
2023/01/01 02:23:30;;;;;;;9.70;2.83;;;;;;;14.49;57.38;100812.06;4971577;28;20026;-86
2023/01/01 02:26:37;;;;;;;10.20;2.97;;;;;;;14.51;58.12;100819.88;4970591;28;20027;-86
2023/01/01 02:29:34;;;;;;;9.68;2.22;;;;;;;14.48;58.00;100828.09;4957687;28;20030;-86
2023/01/01 02:32:21;;;;;;;10.85;2.65;;;;;;;14.48;57.63;100821.00;4939931;29;20036;-87
2023/01/01 02:35:33;;;;;;;10.55;2.67;;;;;;;14.45;57.49;100829.22;4959776;28;20499;-87
2023/01/01 02:37:56;;;;;;;8.90;2.70;;;;;;;14.46;57.09;100830.03;4978828;28;20046;-87
2023/01/01 02:40:23;;;;;;;14.27;2.78;;;;;;;14.43;56.91;100827.69;4976137;28;20526;-86
2023/01/01 02:42:51;;;;;;;8.02;2.72;;;;;;;14.40;57.55;100826.91;4973292;28;20018;-86
2023/01/01 02:45:16;;;;;;;13.98;2.65;;;;;;;14.39;57.39;100817.31;4979424;28;20049;-86
2023/01/01 02:47:41;;;;;;;15.02;3.40;;;;;;;14.36;57.43;100809.63;4977570;28;20019;-87
2023/01/01 02:50:13;;;;;;;11.18;2.50;;;;;;;14.35;57.66;100815.91;4967316;28;20027;-87
2023/01/01 02:53:05;;;;;;;10.00;2.50;;;;;;;14.33;58.02;100831.09;4971754;28;20433;-87
2023/01/01 02:56:04;;;;;;;10.70;2.47;;;;;;;14.35;58.66;100833.59;4971203;28;20173;-87
2023/01/01 03:01:35;;;;;;;8.75;2.15;;;;;;;14.32;58.95;100842.66;4973029;28;20042;-87
2023/01/01 03:04:15;;;;;;;7.22;2.47;;;;;;;14.29;59.07;100835.00;4955161;28;20034;-87
2023/01/01 03:07:10;;;;;;;8.02;2.20;;;;;;;14.25;59.34;100849.47;4972517;28;20053;-87
2023/01/01 03:10:13;;;;;;;9.23;2.28;;;;;;;14.26;60.17;100855.59;4970141;28;20026;-86
2023/01/01 03:12:55;;;;;;;8.45;2.50;;;;;;;14.21;59.58;100836.66;4959270;28;20133;-86
2023/01/01 03:15:33;;;;;;;9.20;2.35;;;;;;;14.22;59.60;100848.91;4971454;28;20033;-86
2023/01/01 03:18:14;;;;;;;9.88;2.70;;;;;;;14.18;60.18;100858.09;4969438;28;20048;-86
2023/01/01 03:20:44;;;;;;;7.38;2.33;;;;;;;14.16;60.27;100860.91;4972073;28;20031;-86
2023/01/01 03:23:15;;;;;;;10.75;2.33;;;;;;;14.16;60.12;100860.91;4970506;28;20031;-86
2023/01/01 03:25:48;;;;;;;12.20;2.40;;;;;;;14.15;60.72;100859.22;4971314;28;20391;-87
2023/01/01 03:28:21;;;;;;;5.32;2.20;;;;;;;14.13;60.58;100855.03;4971064;28;20069;-87
2023/01/01 03:30:48;;;;;;;;;;;;;;;14.19;61.54;100860.63;4973370;28;20179;-86
2023/01/01 03:33:26;;;;;;;12.23;2.78;;;;;;;14.12;61.25;100859.50;4971136;28;19921;-86
2023/01/01 03:36:09;;;;;;;13.57;2.28;;;;;;;14.13;61.31;100858.53;4972643;28;20431;-87
2023/01/01 03:38:41;;;;;;;;;;;;;;;14.18;61.67;100863.41;4997156;28;20089;-87
2023/01/01 03:41:13;;;;;;;14.15;2.63;;;;;;;14.10;61.15;100866.72;4976542;28;19921;-86
2023/01/01 03:43:45;;;;;;;9.65;2.42;;;;;;;14.09;61.49;100865.91;4973910;28;20268;-87
2023/01/01 03:46:13;;;;;;;9.63;2.45;;;;;;;14.07;61.41;100872.28;4970645;28;20033;-86
2023/01/01 03:48:59;;;;;;;11.18;2.15;;;;;;;14.06;61.51;100884.69;4968355;28;20364;-87
2023/01/01 03:51:54;;;;;;;7.90;1.88;;;;;;;14.07;61.58;100888.16;4971984;28;20471;-87
2023/01/01 03:54:43;;;;;;;9.65;2.35;;;;;;;14.09;61.81;100870.34;4970285;28;20027;-86
2023/01/01 03:57:21;;;;;;;8.57;2.20;;;;;;;14.08;61.73;100871.31;4957074;28;20106;-87
2023/01/01 04:00:27;;;;;;;12.18;3.22;;;;;;;14.07;62.58;100883.72;4972831;28;20031;-87
2023/01/01 04:03:00;;;;;;;10.30;2.47;;;;;;;14.04;62.22;100878.69;4954599;28;20078;-86
2023/01/01 04:05:27;;;;;;;10.55;2.50;;;;;;;14.05;62.28;100890.13;4963498;28;20026;-86
2023/01/01 04:07:53;;;;;;;4.63;2.10;;;;;;;14.04;62.36;100893.72;4970982;28;20031;-86
2023/01/01 04:10:23;;;;;;;12.30;2.15;;;;;;;14.03;62.48;100892.06;4973028;28;20057;-87
2023/01/01 04:12:51;;;;;;;7.80;2.03;;;;;;;14.03;62.46;100892.06;4972190;28;20030;-88
2023/01/01 04:15:20;;;;;;;11.07;2.50;;;;;;;14.01;62.79;100901.94;4971459;28;20030;-87
2023/01/01 04:17:46;;;;;;;12.82;2.63;;;;;;;14.01;62.86;100902.78;4972424;28;20034;-85
2023/01/01 04:20:12;;;;;;;9.88;2.20;;;;;;;14.01;62.64;100884.25;4970506;28;20034;-86
2023/01/01 04:22:38;;;;;;;8.55;2.20;;;;;;;13.98;62.87;100895.09;4961654;28;20093;-86
2023/01/01 04:25:04;;;;;;;9.70;2.25;;;;;;;13.97;63.28;100897.88;4970621;28;20038;-86
2023/01/01 04:27:30;;;;;;;10.80;2.50;;;;;;;13.98;62.95;100888.94;4969091;28;20484;-86
2023/01/01 04:29:55;;;;;;;9.25;2.50;;;;;;;13.93;63.77;100883.22;4971531;28;20105;-87
2023/01/01 04:32:21;;;;;;;10.93;2.78;;;;;;;13.91;63.91;100877.25;4971221;28;20388;-86
2023/01/01 04:34:46;;;;;;;8.75;2.45;;;;;;;13.91;64.03;100890.47;4969472;28;20034;-86
2023/01/01 04:37:12;;;;;;;6.07;2.05;;;;;;;13.90;63.97;100907.31;4985711;28;20023;-86
2023/01/01 04:39:38;;;;;;;6.82;1.80;;;;;;;13.85;64.29;100902.41;4969998;28;20085;-86
2023/01/01 04:42:04;;;;;;;8.05;2.15;;;;;;;13.82;64.85;100915.91;4969237;28;20029;-87
2023/01/01 04:44:29;;;;;;;9.60;2.30;;;;;;;13.81;64.78;100916.88;4970762;28;20027;-86
2023/01/01 04:46:55;;;;;;;9.18;2.47;;;;;;;13.77;65.28;100913.66;4970187;28;20034;-87
2023/01/01 04:49:20;;;;;;;9.55;2.78;;;;;;;13.77;65.02;100908.38;4973475;28;20097;-87
2023/01/01 04:51:48;;;;;;;9.98;2.40;;;;;;;13.72;65.96;100918.53;4970924;28;20558;-87
2023/01/01 04:54:14;;;;;;;8.32;2.30;;;;;;;13.73;65.83;100917.56;4976871;28;20037;-86
2023/01/01 04:56:40;;;;;;;9.25;2.47;;;;;;;13.71;66.12;100930.06;4987051;28;20043;-86
2023/01/01 04:59:05;;;;;;;9.05;2.42;;;;;;;13.72;66.61;100926.44;4978603;28;20060;-87
2023/01/01 05:01:31;;;;;;;9.45;2.50;;;;;;;13.71;66.36;100932.72;4975381;28;20467;-86
2023/01/01 05:03:58;;;;;;;10.07;2.35;;;;;;;13.72;66.49;100944.13;4973210;28;20491;-87
2023/01/01 05:06:24;;;;;;;8.32;2.10;;;;;;;13.68;67.03;100940.91;4971566;28;20581;-87
2023/01/01 05:08:51;;;;;;;11.40;2.47;;;;;;;13.70;66.69;100960.13;4971724;28;20027;-88
2023/01/01 05:11:23;;;;;;;9.82;2.40;;;;;;;13.69;66.86;100965.53;4994639;28;20054;-86
2023/01/01 05:13:51;;;;;;;9.57;2.45;;;;;;;13.66;67.16;100950.78;4977377;28;20527;-86
2023/01/01 05:16:22;;;;;;;8.90;2.28;;;;;;;13.67;67.09;100964.84;4978512;28;20035;-87
2023/01/01 05:18:51;;;;;;;13.00;2.80;;;;;;;13.65;67.26;100964.97;4977633;28;20031;-86
2023/01/01 05:21:22;;;;;;;10.23;2.28;;;;;;;13.61;67.82;100968.84;4961065;28;20106;-86
2023/01/01 05:23:52;;;;;;;7.35;2.47;;;;;;;13.63;67.60;100996.00;4960248;28;20440;-88
2023/01/01 05:26:23;;;;;;;8.80;3.00;;;;;;;13.61;67.89;100997.06;4964779;28;20019;-87
2023/01/01 05:28:49;;;;;;;9.10;2.90;;;;;;;13.60;68.15;101014.72;4974689;28;20085;-87
2023/01/01 05:31:20;;;;;;;11.48;2.90;;;;;;;13.60;68.32;101006.78;4972259;28;20114;-86
2023/01/01 05:33:51;;;;;;;8.70;2.60;;;;;;;13.58;68.44;101016.66;4974270;28;20113;-86
2023/01/01 05:36:21;;;;;;;9.57;2.63;;;;;;;13.57;68.58;101006.22;4973607;28;20106;-87
2023/01/01 05:38:47;;;;;;;6.68;2.40;;;;;;;13.56;68.59;101023.06;4973367;28;20584;-87
2023/01/01 05:41:14;;;;;;;12.35;2.53;;;;;;;13.54;68.63;101012.59;4974449;28;20070;-86
2023/01/01 05:43:40;;;;;;;9.60;2.42;;;;;;;13.53;68.86;101018.84;4968140;28;20033;-86
2023/01/01 05:46:09;;;;;;;7.13;2.47;;;;;;;13.53;69.18;101020.66;4973657;28;20039;-87
2023/01/01 05:48:35;;;;;;;9.73;2.40;;;;;;;13.49;69.35;101031.50;4971649;28;20475;-85
2023/01/01 05:51:09;;;;;;;9.88;2.67;;;;;;;13.44;69.85;101020.47;4971869;28;20116;-86
2023/01/01 05:53:35;;;;;;;10.68;2.72;;;;;;;13.47;69.59;101037.88;4972765;28;20027;-86
2023/01/01 05:56:01;;;;;;;7.60;2.30;;;;;;;13.43;69.99;101037.28;4972980;28;20395;-86
2023/01/01 05:58:28;;;;;;;9.35;2.70;;;;;;;13.42;70.02;101050.63;4972344;28;20054;-86
2023/01/01 06:00:54;;;;;;;9.23;2.72;;;;;;;13.43;70.31;101052.31;4974717;28;20102;-87
2023/01/01 06:03:20;;;;;;;8.77;2.60;;;;;;;13.40;70.82;101049.94;4979362;28;20121;-86
2023/01/01 06:05:45;;;;;;;10.05;3.05;;;;;;;13.40;70.57;101048.13;4976159;28;20590;-87
2023/01/01 06:08:11;;;;;;;8.70;2.60;;;;;;;13.39;70.50;101050.91;4975053;28;20062;-86
2023/01/01 06:10:36;;;;;;;9.75;2.60;;;;;;;13.37;70.85;101064.25;4971848;28;20043;-86
2023/01/01 06:13:04;;;;;;;9.57;2.72;;;;;;;13.35;70.73;101066.16;4972128;28;20054;-86
2023/01/01 06:15:30;;;;;;;9.68;2.92;;;;;;;13.35;70.76;101060.88;4973386;28;20042;-85
2023/01/01 06:17:57;;;;;;;12.52;2.97;;;;;;;13.31;71.43;101077.97;4974925;28;20065;-87
2023/01/01 06:20:23;;;;;;;9.57;2.83;;;;;;;13.33;71.21;101077.84;4972892;28;20090;-87
2023/01/01 06:22:51;;;;;;;9.40;2.65;;;;;;;13.31;71.54;101074.47;4974276;28;20054;-86
2023/01/01 06:25:16;;;;;;;7.47;2.60;;;;;;;13.26;72.54;101093.34;4975080;28;20073;-87
2023/01/01 06:27:41;;;;;;;7.85;2.72;;;;;;;13.24;74.66;101116.44;4972620;28;20467;-87
2023/01/01 06:30:07;;;;;;;11.07;2.58;;;;;;;13.01;79.39;101123.50;4975170;28;20483;-88
2023/01/01 06:32:33;;;;;;;8.80;2.58;;;;;;;12.79;81.58;101136.72;4978663;28;20023;-89
2023/01/01 06:34:59;;;;;;;7.47;2.33;;;;;;;12.61;83.54;101149.56;4981799;28;20030;-89
2023/01/01 06:37:24;;;;;;;9.98;2.25;;;;;;;12.44;85.33;101148.25;4973081;28;20496;-89
2023/01/01 06:39:49;;;;;;;9.35;3.17;;;;;;;12.31;86.09;101147.47;4974333;28;20030;-90
2023/01/01 06:42:15;;;;;;;8.57;2.60;;;;;;;12.17;87.05;101155.59;4971571;28;20077;-86
2023/01/01 06:44:41;;;;;;;12.25;3.30;;;;;;;12.04;88.46;101152.22;4975126;28;20033;-91
2023/01/01 06:47:08;;;;;;;8.38;3.40;;;;;;;11.96;90.53;101170.41;4980064;28;20121;-91
2023/01/01 06:49:34;;;;;;;8.57;3.35;;;;;;;11.89;91.79;101162.94;4983121;28;20090;-92
2023/01/01 06:52:00;;;;;;;7.95;3.22;;;;;;;11.85;92.26;101172.03;4976939;28;20110;-90
2023/01/01 06:54:25;;;;;;;11.45;3.58;;;;;;;11.79;93.42;101190.13;4975951;28;20054;-90
2023/01/01 06:56:51;;;;;;;9.90;3.10;;;;;;;11.66;94.34;101192.78;4972489;28;20031;-90
2023/01/01 06:59:16;;;;;;;10.10;3.13;;;;;;;11.60;95.23;101185.28;4971428;28;20077;-91
2023/01/01 07:01:42;;;;;;;6.32;2.75;;;;;;;11.49;96.24;101190.50;4988327;28;20035;-90
2023/01/01 07:04:14;;;;;;;11.15;3.13;;;;;;;11.46;98.46;101196.84;4976560;28;20031;-91
2023/01/01 07:06:40;;;;;;;9.03;3.00;;;;;;;11.40;98.55;101196.44;4959902;28;20476;-91
2023/01/01 07:09:06;;;;;;;12.98;3.55;;;;;;;11.36;99.63;101195.00;4960225;28;20290;-90
2023/01/01 07:11:32;;;;;;;12.35;3.20;;;;;;;11.28;100.00;101199.03;4953545;28;20053;-94
2023/01/01 07:13:57;;;;;;;8.05;2.85;;;;;;;11.24;100.00;101207.25;4968694;28;20045;-91
2023/01/01 07:16:23;;;;;;;11.10;3.42;;;;;;;11.22;100.00;101220.53;4973351;28;20031;-89
2023/01/01 07:18:50;;;;;;;11.70;2.65;;;;;;;11.16;99.87;101205.13;4970708;28;20026;-92
2023/01/01 07:21:32;;;;;;;8.00;2.20;;;;;;;11.16;98.29;101204.28;4956465;28;20022;-92
2023/01/01 07:23:59;;;;;;;7.50;2.10;;;;;;;11.10;97.35;101210.84;4975973;28;20525;-91
2023/01/01 07:26:26;;;;;;;7.45;2.03;;;;;;;11.10;95.61;101216.09;4986776;28;20173;-88
2023/01/01 07:28:51;;;;;;;6.90;1.98;;;;;;;11.07;95.52;101215.47;4973852;28;20026;-90
2023/01/01 07:31:20;;;;;;;9.85;2.10;;;;;;;11.06;95.31;101216.44;4974343;28;20396;-91
2023/01/01 07:33:46;;;;;;;6.97;1.98;;;;;;;11.03;96.91;101221.91;4988697;28;20061;-91
2023/01/01 07:36:11;;;;;;;6.57;1.90;;;;;;;11.01;96.84;101245.72;4967476;28;20031;-93
2023/01/01 07:38:37;;;;;;;8.23;2.00;;;;;;;11.00;97.09;101233.50;4955247;28;20027;-92
2023/01/01 07:41:03;;;;;;;8.77;2.00;;;;;;;10.94;97.81;101237.41;4973028;28;20026;-92
2023/01/01 07:43:28;;;;;;;10.23;2.13;;;;;;;10.91;98.45;101236.78;4971726;28;20038;-93
2023/01/01 07:45:53;;;;;;;7.43;2.40;;;;;;;10.87;98.79;101244.03;4975766;28;20046;-93
2023/01/01 07:48:23;;;;;;;11.48;2.42;;;;;;;10.86;100.00;101249.41;4988968;28;20027;-92
2023/01/01 07:50:50;;;;;;;6.93;1.92;;;;;;;10.84;100.00;101261.84;4974324;28;20030;-92
2023/01/01 07:53:15;;;;;;;10.68;2.53;;;;;;;10.77;100.00;101260.56;4967215;28;20062;-89
2023/01/01 07:55:40;;;;;;;10.65;2.53;;;;;;;10.74;100.00;101261.59;4957340;28;20117;-90
2023/01/01 07:58:13;;;;;;;6.60;2.30;;;;;;;10.75;100.00;101272.97;4966938;28;20432;-91
2023/01/01 08:00:44;;;;;;;;;;;;;;;10.80;100.00;101271.72;4962801;28;20341;-90
2023/01/01 08:03:12;;;;;;;9.45;2.58;;;;;;;10.71;100.00;101297.81;4956057;28;19914;-90
2023/01/01 08:05:38;;;;;;;8.43;2.40;;;;;;;10.63;100.00;101301.81;4962538;28;20790;-90
2023/01/01 08:08:03;;;;;;;7.72;2.40;;;;;;;10.64;100.00;101327.19;4956734;28;20035;-91
2023/01/01 08:10:38;;;;;;;10.32;2.63;;;;;;;10.59;100.00;101317.91;4970614;28;20057;-91
2023/01/01 08:13:06;;;;;;;11.30;2.80;;;;;;;10.57;100.00;101310.13;4958240;28;20046;-90
2023/01/01 08:15:34;;;;;;;11.27;2.70;;;;;;;10.59;100.00;101323.16;4981775;28;20058;-88
2023/01/01 08:18:05;;;;;;;7.10;2.40;;;;;;;10.57;100.00;101325.91;4962921;28;20034;-92
2023/01/01 08:20:38;;;;;;;10.27;2.42;;;;;;;10.57;100.00;101312.75;4964445;28;20026;-90
2023/01/01 08:23:03;;;;;;;10.50;2.92;;;;;;;10.54;100.00;101307.69;4957648;28;20023;-91
2023/01/01 08:25:29;;;;;;;7.30;2.38;;;;;;;10.56;100.00;101320.75;4967744;28;20494;-89
2023/01/01 08:27:54;;;;;;;7.97;2.65;;;;;;;10.51;100.00;101318.41;4952798;28;20102;-89
2023/01/01 08:30:19;;;;;;;14.23;3.10;;;;;;;10.49;100.00;101315.06;4952916;28;20472;-90
2023/01/01 08:32:45;;;;;;;9.27;2.83;;;;;;;10.53;100.00;101324.44;4954087;28;20038;-90
2023/01/01 08:35:10;;;;;;;9.88;3.03;;;;;;;10.51;100.00;101325.47;4980576;28;20059;-92
2023/01/01 08:37:36;;;;;;;11.23;2.83;;;;;;;10.50;100.00;101322.00;4992540;28;20017;-90
2023/01/01 08:40:05;;;;;;;14.50;3.40;;;;;;;10.46;100.00;101349.47;4988077;28;20030;-89
2023/01/01 08:42:31;;;;;;;9.27;3.20;;;;;;;10.49;100.00;101351.88;4977835;28;20015;-91
2023/01/01 08:44:56;;;;;;;10.82;3.30;;;;;;;10.50;100.00;101364.09;4962185;28;20030;-90
2023/01/01 08:47:24;;;;;;;8.85;2.80;;;;;;;10.49;100.00;101351.88;4955976;28;20023;-91
2023/01/01 08:49:49;;;;;;;10.77;2.70;;;;;;;10.45;100.00;101337.25;4963059;28;20029;-83
2023/01/01 08:52:16;;;;;;;8.90;2.80;;;;;;;10.49;100.00;101354.50;4974929;28;20039;-84
2023/01/01 08:54:41;;;;;;;9.40;3.10;;;;;;;10.51;100.00;101359.69;4988474;28;20065;-85
2023/01/01 08:57:07;;;;;;;10.32;2.50;;;;;;;10.50;100.00;101376.41;4973285;28;20058;-89
2023/01/01 08:59:32;;;;;;;12.20;3.00;;;;;;;10.50;100.00;101368.50;4974044;28;20472;-88
2023/01/01 09:01:58;;;;;;;12.48;3.25;;;;;;;10.50;100.00;101363.25;4973420;28;20019;-87
2023/01/01 09:04:25;;;;;;;11.27;3.08;;;;;;;10.49;100.00;101341.38;4973997;28;20088;-89
2023/01/01 09:06:51;;;;;;;12.05;3.20;;;;;;;10.49;100.00;101341.38;4969344;28;20055;-89
2023/01/01 09:09:16;;;;;;;13.32;3.17;;;;;;;10.50;100.00;101353.56;4971034;28;20047;-89
2023/01/01 09:11:53;;;;;;;14.20;3.20;;;;;;;10.51;100.00;101354.41;4974940;28;20474;-89
2023/01/01 09:14:21;;;;;;;12.55;3.60;;;;;;;10.49;100.00;101365.03;4974425;28;20118;-89
2023/01/01 09:16:47;;;;;;;9.65;3.05;;;;;;;10.55;100.00;101369.91;4974134;28;20506;-86
2023/01/01 09:19:13;;;;;;;12.60;3.25;;;;;;;10.53;100.00;101369.16;4973581;28;20022;-86
2023/01/01 09:21:38;;;;;;;10.38;3.22;;;;;;;10.60;100.00;101365.16;4974480;28;20031;-88
2023/01/01 09:24:04;;;;;;;14.52;3.65;;;;;;;10.58;100.00;101355.69;4972720;28;20538;-87
2023/01/01 09:26:29;;;;;;;10.20;3.53;;;;;;;10.63;100.00;101348.34;4973835;28;20113;-86
2023/01/01 09:28:55;;;;;;;9.82;3.38;;;;;;;10.67;100.00;101368.25;4974567;28;20110;-88
2023/01/01 09:31:20;;;;;;;11.95;3.47;;;;;;;10.66;100.00;101377.91;4973563;28;20026;-89
2023/01/01 09:33:45;;;;;;;8.50;2.92;;;;;;;10.65;100.00;101381.50;4974109;28;20047;-87
2023/01/01 09:36:17;;;;;;;11.75;3.28;;;;;;;10.64;100.00;101381.59;4989684;28;20038;-87
2023/01/01 09:38:48;;;;;;;15.27;3.70;;;;;;;10.61;100.00;101377.38;4993156;28;20028;-88
2023/01/01 09:41:41;;;;;;;10.23;3.25;;;;;;;10.62;100.00;101389.59;4991224;28;20107;-89
2023/01/01 09:44:13;;;;;;;13.65;3.33;;;;;;;10.60;100.00;101382.75;4961746;28;20039;-87
2023/01/01 09:46:38;;;;;;;8.30;3.63;;;;;;;10.56;100.00;101376.84;4976919;28;20047;-87
2023/01/01 09:49:16;;;;;;;15.80;3.65;;;;;;;10.61;100.00;101382.66;4971287;28;20065;-87
2023/01/01 09:51:42;;;;;;;10.57;3.03;;;;;;;10.57;100.00;101383.78;4966334;28;20062;-87
2023/01/01 09:54:32;;;;;;;8.90;3.20;;;;;;;10.56;100.00;101392.63;4971586;28;20035;-88
2023/01/01 09:57:01;;;;;;;11.98;3.50;;;;;;;10.50;100.00;101385.13;4972169;28;20057;-88
2023/01/01 09:59:27;;;;;;;9.25;3.25;;;;;;;10.52;100.00;101385.88;4962272;28;20031;-88
2023/01/01 10:02:10;;;;;;;14.68;4.00;;;;;;;10.52;100.00;101377.16;4973677;28;20026;-88
2023/01/01 10:05:01;;;;;;;9.73;4.35;;;;;;;10.58;100.00;101385.47;4972786;28;20038;-87
2023/01/01 10:07:49;;;;;;;12.52;4.07;;;;;;;10.57;100.00;101381.16;4982210;28;20043;-88
2023/01/01 10:10:17;;;;;;;14.52;4.53;;;;;;;10.55;100.00;101388.31;4987049;28;20046;-87
2023/01/01 10:13:21;;;;;;;15.77;4.93;;;;;;;10.58;100.00;101389.91;4971384;28;20551;-87
2023/01/01 10:16:19;;;;;;;13.18;4.32;;;;;;;10.58;100.00;101377.59;4973319;28;20030;-87
2023/01/01 10:18:52;;;;;;;12.05;5.03;;;;;;;10.57;100.00;101375.06;4951107;28;20046;-86
2023/01/01 10:21:33;;;;;;;15.85;4.88;;;;;;;10.61;100.00;101385.28;4974022;28;20017;-87
2023/01/01 10:24:21;;;;;;;17.63;5.07;;;;;;;10.60;100.00;101380.97;4972645;28;20026;-87
2023/01/01 10:26:48;;;;;;;17.73;4.97;;;;;;;10.67;100.00;101382.25;4966404;28;20027;-88
2023/01/01 10:29:21;;;;;;;14.35;4.65;;;;;;;10.71;100.00;101380.25;4973036;28;20023;-88
2023/01/01 10:31:46;;;;;;;12.48;4.78;;;;;;;10.76;100.00;101382.56;4971711;28;20033;-88
2023/01/01 10:34:27;;;;;;;14.80;4.57;;;;;;;10.81;100.00;101388.41;4968000;28;20035;-87
2023/01/01 10:36:55;;;;;;;15.80;4.60;;;;;;;10.86;100.00;101384.50;4971375;28;20031;-88
2023/01/01 10:39:21;;;;;;;9.63;4.25;;;;;;;10.86;100.00;101381.88;4971326;28;20031;-88
2023/01/01 10:41:46;;;;;;;17.00;4.53;;;;;;;10.91;100.00;101384.22;4986199;28;20026;-89
2023/01/01 10:44:15;;;;;;;12.32;4.50;;;;;;;10.94;100.00;101381.38;4973638;28;20031;-88
2023/01/01 10:46:45;;;;;;;12.85;4.00;;;;;;;11.00;100.00;101383.59;4975397;28;20105;-89
2023/01/01 10:49:13;;;;;;;16.98;4.50;;;;;;;11.06;100.00;101380.53;4972352;28;20077;-89
2023/01/01 10:51:45;;;;;;;10.15;3.97;;;;;;;11.12;100.00;101382.75;4971823;28;20085;-88
2023/01/01 10:54:36;;;;;;;16.43;4.27;;;;;;;11.20;100.00;101380.44;4967593;28;20034;-89
2023/01/01 10:57:32;;;;;;;14.15;4.13;;;;;;;11.25;100.00;101372.25;4974062;28;20381;-87
2023/01/01 11:00:23;;;;;;;14.98;4.53;;;;;;;11.33;100.00;101379.63;4976311;28;20080;-88
2023/01/01 11:03:20;;;;;;;12.65;4.10;;;;;;;11.43;100.00;101378.88;4970050;28;20031;-88
2023/01/01 11:06:12;;;;;;;13.13;3.90;;;;;;;11.51;100.00;101394.16;4969053;28;20101;-88
2023/01/01 11:08:45;;;;;;;14.60;3.97;;;;;;;11.57;100.00;101385.81;4967324;28;20497;-88
2023/01/01 11:11:20;;;;;;;;;;;;;;;11.68;100.00;101396.47;4972398;28;20051;-88
2023/01/01 11:13:52;;;;;;;11.35;3.72;;;;;;;11.71;100.00;101400.69;4967066;28;19918;-88
2023/01/01 11:16:20;;;;;;;12.23;3.97;;;;;;;11.76;100.00;101393.28;4971541;28;20034;-89
2023/01/01 11:18:51;;;;;;;15.23;4.10;;;;;;;11.82;100.00;101404.28;4971607;28;20034;-89
2023/01/01 11:21:22;;;;;;;15.43;3.90;;;;;;;11.90;99.88;101401.94;4983812;28;20022;-88
2023/01/01 11:24:07;;;;;;;14.50;3.65;;;;;;;11.98;98.58;101413.75;4970371;28;20037;-89
2023/01/01 11:26:33;;;;;;;15.45;4.03;;;;;;;12.00;98.35;101410.03;4972143;28;20090;-88
2023/01/01 11:29:16;;;;;;;11.18;3.33;;;;;;;12.07;97.47;101406.03;4971784;28;20162;-89
2023/01/01 11:31:44;;;;;;;15.00;3.80;;;;;;;12.12;96.69;101408.34;4972113;28;20093;-89
2023/01/01 11:34:33;;;;;;;13.57;3.67;;;;;;;12.19;96.69;101399.03;4971258;28;20027;-89
2023/01/01 11:37:32;;;;;;;12.35;3.67;;;;;;;12.27;95.82;101398.47;4969772;28;20138;-90
2023/01/01 11:40:00;;;;;;;12.02;3.35;;;;;;;12.28;94.25;101406.28;4959742;28;20121;-90
2023/01/01 11:42:29;;;;;;;16.77;4.22;;;;;;;12.32;94.58;101396.34;4970641;28;20033;-90